Time;durP1;ratioP1;P1;durP2;ratioP2;P2;SDS_P1;SDS_P2;PMS_P1;PMS_P2;Temp;Humidity;BMP_temperature;BMP_pressure;BME280_temperature;BME280_humidity;BME280_pressure;Samples;Min_cycle;Max_cycle;Signal;HPM_P1;HPM_P2
2022/12/16 00:00:21;;;;;;;90.17;34.70;;;-2.10;99.90;;;;;;10317294;28;20137;-81
2022/12/16 00:05:21;;;;;;;87.30;35.63;;;-2.10;99.90;;;;;;10317448;28;20042;-81
2022/12/16 00:10:22;;;;;;;85.10;34.50;;;-2.10;99.90;;;;;;10315275;28;20042;-81
2022/12/16 00:15:23;;;;;;;77.03;32.33;;;-2.10;99.90;;;;;;10317225;28;20042;-82
2022/12/16 00:20:23;;;;;;;83.23;31.27;;;-2.00;99.90;;;;;;10323196;28;20474;-82
2022/12/16 00:25:24;;;;;;;80.90;32.83;;;-2.00;99.90;;;;;;10322734;28;20030;-82
2022/12/16 00:30:24;;;;;;;84.63;34.30;;;-2.00;99.90;;;;;;10324666;28;20813;-83
2022/12/16 00:35:25;;;;;;;90.83;33.50;;;-2.00;99.90;;;;;;10325508;28;20054;-82
2022/12/16 00:40:26;;;;;;;87.23;35.33;;;-2.00;99.90;;;;;;10305061;28;20043;-82
2022/12/16 00:45:26;;;;;;;90.63;36.40;;;-2.00;99.90;;;;;;10356345;28;20042;-82
2022/12/16 00:50:27;;;;;;;92.50;33.87;;;-2.10;99.90;;;;;;10324565;28;20053;-83
2022/12/16 00:55:28;;;;;;;85.80;32.70;;;-2.00;99.90;;;;;;10353242;28;20045;-81
2022/12/16 01:00:28;;;;;;;98.77;37.60;;;-2.00;99.90;;;;;;10322344;28;20043;-82
2022/12/16 01:05:29;;;;;;;105.13;38.43;;;-2.00;99.90;;;;;;10317143;28;20034;-82
2022/12/16 01:10:29;;;;;;;101.17;37.43;;;-2.00;99.90;;;;;;10348018;28;20031;-82
2022/12/16 01:15:30;;;;;;;104.23;39.37;;;-2.00;99.90;;;;;;10318223;28;20045;-82
2022/12/16 01:20:33;;;;;;;108.70;39.73;;;-2.00;99.90;;;;;;10322551;28;20133;-82
2022/12/16 01:25:33;;;;;;;94.37;35.10;;;-2.00;99.90;;;;;;10349331;28;20097;-82
2022/12/16 01:30:34;;;;;;;91.67;35.47;;;-2.00;99.90;;;;;;10323142;28;20038;-82
2022/12/16 01:35:35;;;;;;;95.30;34.87;;;-2.00;99.90;;;;;;10321175;28;20496;-82
2022/12/16 01:40:35;;;;;;;95.27;33.87;;;-1.90;99.90;;;;;;10321230;28;20038;-82
2022/12/16 01:45:36;;;;;;;97.43;36.43;;;-1.90;99.90;;;;;;10353835;28;20049;-82
2022/12/16 01:50:36;;;;;;;89.53;36.60;;;-1.90;99.90;;;;;;10322236;28;20076;-82
2022/12/16 01:55:42;;;;;;;95.90;35.60;;;-1.90;99.90;;;;;;10320625;28;20035;-83
2022/12/16 02:00:42;;;;;;;96.10;36.03;;;-1.90;99.90;;;;;;10321732;28;20530;-82
2022/12/16 02:05:44;;;;;;;95.37;35.13;;;-1.80;99.90;;;;;;10322654;28;20033;-82
2022/12/16 02:11:00;;;;;;;90.17;35.47;;;-1.80;99.90;;;;;;10351678;28;20401;-83
2022/12/16 02:16:14;;;;;;;70.07;29.05;;;-1.90;99.90;;;;;;10351897;28;20133;-83
2022/12/16 02:21:31;;;;;;;86.23;32.20;;;-1.90;99.90;;;;;;10350894;28;20044;-83
2022/12/16 02:26:50;;;;;;;80.03;31.90;;;-2.00;99.90;;;;;;10315935;28;20137;-82
2022/12/16 02:31:57;;;;;;;90.57;34.27;;;-2.10;99.90;;;;;;10317246;28;20053;-83
2022/12/16 02:37:31;;;;;;;87.07;32.70;;;-2.10;99.90;;;;;;10350788;28;20067;-82
2022/12/16 02:42:43;;;;;;;96.30;38.60;;;-2.10;99.90;;;;;;10310534;28;20048;-82
2022/12/16 02:47:45;;;;;;;102.80;39.37;;;-2.20;99.90;;;;;;10319031;28;20029;-82
2022/12/16 02:52:45;;;;;;;98.63;36.93;;;-2.20;99.90;;;;;;10320335;28;20057;-82
2022/12/16 02:57:54;;;;;;;110.80;40.80;;;-2.20;99.90;;;;;;10307730;28;20038;-82
2022/12/16 03:03:12;;;;;;;102.80;39.27;;;-2.30;99.90;;;;;;10319838;28;20130;-82
2022/12/16 03:08:29;;;;;;;103.47;42.13;;;-2.30;99.90;;;;;;10350283;28;20037;-80
2022/12/16 03:13:35;;;;;;;105.67;42.23;;;-2.20;99.90;;;;;;10317936;28;20058;-80
2022/12/16 03:18:39;;;;;;;98.30;41.67;;;-2.30;99.90;;;;;;10318811;28;20470;-80
2022/12/16 03:23:46;;;;;;;103.23;40.17;;;-2.30;99.90;;;;;;10317155;28;20037;-81
2022/12/16 03:29:15;;;;;;;105.77;42.83;;;-2.20;99.90;;;;;;10316274;28;20137;-80
2022/12/16 03:34:19;;;;;;;105.17;40.70;;;-2.20;99.90;;;;;;10294318;28;20050;-81
2022/12/16 03:39:22;;;;;;;104.97;39.03;;;-2.20;99.90;;;;;;10318207;28;20069;-81
2022/12/16 03:44:24;;;;;;;96.27;37.57;;;-2.30;99.90;;;;;;10319245;28;20031;-80
2022/12/16 03:49:25;;;;;;;103.40;39.03;;;-2.30;99.90;;;;;;10309898;28;20027;-81
2022/12/16 03:54:25;;;;;;;95.33;37.73;;;-2.30;99.90;;;;;;10312622;28;20038;-81
2022/12/16 03:59:26;;;;;;;99.30;38.20;;;-2.40;99.90;;;;;;10324204;28;20524;-80
2022/12/16 04:04:26;;;;;;;89.67;34.00;;;-2.30;99.90;;;;;;10336358;28;20108;-81
2022/12/16 04:09:27;;;;;;;93.07;37.43;;;-2.40;99.90;;;;;;10321767;28;20773;-82
2022/12/16 04:25:16;;;;;;;82.60;33.47;;;-2.50;99.90;;;;;;10314510;28;20038;-82
2022/12/16 04:30:19;;;;;;;67.23;28.03;;;-2.50;99.90;;;;;;10313099;28;20121;-82
